Emneth, United Kingdom
Current Conditions -  °F | °C
As of 7:50 PM on Monday 26 Jan 2015 (Local Time) from EGYM Reporting Station
Clear Clear  
Wind Chill: 31°   Ceiling: Unl
Heat Index: 37°   Visibility: 6mi
Dew Point: 34°   Wind: 9mph
Humidity: 87%   Direction: 290°WNW
Pressure: 30.24"   Gusts: NA
Location:  52.64°N, 0.21°E
Report Text: EGYM 261950Z 29008KT CAVOK 03/01 Q1024 BLU NOSIG
Loading
Personal Weather Stations






























Interactive Weather Map New forecast layout! Learn more

10-Day Weather Forecast

Advertisements
Track Severe Weather on mobile